sensor_id;sensor_type;location;lat;lon;timestamp;P1;durP1;ratioP1;P2;durP2;ratioP2
53285;SDS011;39171;45.550;12.074;2022-07-22T00:01:36;2.50;;;1.60;;
53285;SDS011;39171;45.550;12.074;2022-07-22T00:07:38;2.20;;;1.70;;
53285;SDS011;39171;45.550;12.074;2022-07-22T00:13:40;2.78;;;1.85;;
53285;SDS011;39171;45.550;12.074;2022-07-22T00:19:41;2.33;;;1.80;;
53285;SDS011;39171;45.550;12.074;2022-07-22T00:25:42;2.13;;;1.75;;
53285;SDS011;39171;45.550;12.074;2022-07-22T00:31:44;2.28;;;1.70;;
53285;SDS011;39171;45.550;12.074;2022-07-22T00:37:45;3.13;;;2.10;;
53285;SDS011;39171;45.550;12.074;2022-07-22T00:43:52;2.58;;;2.10;;
53285;SDS011;39171;45.550;12.074;2022-07-22T00:49:56;2.53;;;2.00;;
53285;SDS011;39171;45.550;12.074;2022-07-22T00:55:57;3.25;;;2.28;;
53285;SDS011;39171;45.550;12.074;2022-07-22T01:01:59;2.53;;;2.00;;
53285;SDS011;39171;45.550;12.074;2022-07-22T01:08:04;3.05;;;2.30;;
53285;SDS011;39171;45.550;12.074;2022-07-22T01:14:06;3.10;;;2.47;;
53285;SDS011;39171;45.550;12.074;2022-07-22T01:20:09;2.50;;;2.20;;
53285;SDS011;39171;45.550;12.074;2022-07-22T01:26:10;3.28;;;2.63;;
53285;SDS011;39171;45.550;12.074;2022-07-22T01:32:12;2.80;;;2.25;;
53285;SDS011;39171;45.550;12.074;2022-07-22T01:38:14;3.38;;;2.70;;
53285;SDS011;39171;45.550;12.074;2022-07-22T01:44:16;3.47;;;2.70;;
53285;SDS011;39171;45.550;12.074;2022-07-22T01:50:18;3.17;;;2.70;;
53285;SDS011;39171;45.550;12.074;2022-07-22T01:56:19;3.63;;;2.78;;
53285;SDS011;39171;45.550;12.074;2022-07-22T02:02:24;4.40;;;2.70;;
53285;SDS011;39171;45.550;12.074;2022-07-22T02:08:25;3.10;;;2.78;;
53285;SDS011;39171;45.550;12.074;2022-07-22T02:14:51;4.03;;;3.10;;
53285;SDS011;39171;45.550;12.074;2022-07-22T02:20:52;3.30;;;3.00;;
53285;SDS011;39171;45.550;12.074;2022-07-22T02:26:54;3.38;;;3.00;;
53285;SDS011;39171;45.550;12.074;2022-07-22T02:32:55;3.80;;;3.00;;
53285;SDS011;39171;45.550;12.074;2022-07-22T02:38:57;5.05;;;3.50;;
53285;SDS011;39171;45.550;12.074;2022-07-22T02:44:59;4.38;;;3.67;;
53285;SDS011;39171;45.550;12.074;2022-07-22T02:51:02;3.53;;;3.10;;
53285;SDS011;39171;45.550;12.074;2022-07-22T02:57:04;3.80;;;3.10;;
53285;SDS011;39171;45.550;12.074;2022-07-22T03:03:06;4.13;;;3.72;;
53285;SDS011;39171;45.550;12.074;2022-07-22T03:09:08;4.43;;;3.20;;
53285;SDS011;39171;45.550;12.074;2022-07-22T03:15:11;3.80;;;3.40;;
53285;SDS011;39171;45.550;12.074;2022-07-22T03:21:13;4.15;;;3.42;;
53285;SDS011;39171;45.550;12.074;2022-07-22T03:27:14;4.03;;;3.63;;
53285;SDS011;39171;45.550;12.074;2022-07-22T03:33:16;3.78;;;3.40;;
53285;SDS011;39171;45.550;12.074;2022-07-22T03:39:17;3.83;;;3.47;;
53285;SDS011;39171;45.550;12.074;2022-07-22T03:45:19;3.60;;;3.28;;
53285;SDS011;39171;45.550;12.074;2022-07-22T03:51:20;3.97;;;3.35;;
53285;SDS011;39171;45.550;12.074;2022-07-22T03:57:21;4.60;;;3.42;;
53285;SDS011;39171;45.550;12.074;2022-07-22T04:03:32;4.43;;;4.03;;
53285;SDS011;39171;45.550;12.074;2022-07-22T04:09:41;4.53;;;3.50;;
53285;SDS011;39171;45.550;12.074;2022-07-22T04:15:43;4.07;;;3.60;;
53285;SDS011;39171;45.550;12.074;2022-07-22T04:21:45;4.25;;;3.53;;
53285;SDS011;39171;45.550;12.074;2022-07-22T04:27:46;4.50;;;3.70;;
53285;SDS011;39171;45.550;12.074;2022-07-22T04:33:49;4.45;;;4.00;;
53285;SDS011;39171;45.550;12.074;2022-07-22T04:39:50;4.38;;;3.53;;
53285;SDS011;39171;45.550;12.074;2022-07-22T04:45:52;3.70;;;3.40;;
53285;SDS011;39171;45.550;12.074;2022-07-22T04:51:54;3.75;;;3.40;;
53285;SDS011;39171;45.550;12.074;2022-07-22T04:58:10;3.45;;;3.15;;
53285;SDS011;39171;45.550;12.074;2022-07-22T05:04:11;4.20;;;3.80;;
53285;SDS011;39171;45.550;12.074;2022-07-22T05:10:16;3.63;;;3.30;;
53285;SDS011;39171;45.550;12.074;2022-07-22T05:16:18;3.90;;;3.47;;
53285;SDS011;39171;45.550;12.074;2022-07-22T05:22:21;4.03;;;3.45;;
53285;SDS011;39171;45.550;12.074;2022-07-22T05:28:31;3.83;;;3.42;;
53285;SDS011;39171;45.550;12.074;2022-07-22T05:34:33;3.72;;;3.10;;
53285;SDS011;39171;45.550;12.074;2022-07-22T05:40:34;3.13;;;2.83;;
53285;SDS011;39171;45.550;12.074;2022-07-22T05:46:37;3.38;;;2.92;;
53285;SDS011;39171;45.550;12.074;2022-07-22T05:52:40;3.10;;;2.50;;
53285;SDS011;39171;45.550;12.074;2022-07-22T05:58:42;2.50;;;2.30;;
53285;SDS011;39171;45.550;12.074;2022-07-22T06:04:46;2.30;;;2.00;;
53285;SDS011;39171;45.550;12.074;2022-07-22T06:10:50;2.40;;;2.10;;
53285;SDS011;39171;45.550;12.074;2022-07-22T06:16:54;2.40;;;2.17;;
53285;SDS011;39171;45.550;12.074;2022-07-22T06:22:56;2.13;;;1.85;;
53285;SDS011;39171;45.550;12.074;2022-07-22T06:28:59;1.98;;;1.73;;
53285;SDS011;39171;45.550;12.074;2022-07-22T06:35:01;1.90;;;1.63;;
53285;SDS011;39171;45.550;12.074;2022-07-22T06:41:03;1.80;;;1.50;;
53285;SDS011;39171;45.550;12.074;2022-07-22T06:47:27;2.13;;;1.88;;
53285;SDS011;39171;45.550;12.074;2022-07-22T06:53:29;1.80;;;1.60;;
53285;SDS011;39171;45.550;12.074;2022-07-22T06:59:30;1.67;;;1.50;;
53285;SDS011;39171;45.550;12.074;2022-07-22T07:05:36;2.05;;;1.60;;
53285;SDS011;39171;45.550;12.074;2022-07-22T07:11:39;1.50;;;1.33;;
53285;SDS011;39171;45.550;12.074;2022-07-22T07:17:49;1.50;;;1.23;;
53285;SDS011;39171;45.550;12.074;2022-07-22T07:23:51;1.45;;;1.10;;
53285;SDS011;39171;45.550;12.074;2022-07-22T07:29:54;1.73;;;1.48;;
53285;SDS011;39171;45.550;12.074;2022-07-22T07:35:55;1.95;;;1.60;;
53285;SDS011;39171;45.550;12.074;2022-07-22T07:42:08;1.65;;;1.35;;
53285;SDS011;39171;45.550;12.074;2022-07-22T07:48:15;1.63;;;1.30;;
53285;SDS011;39171;45.550;12.074;2022-07-22T07:54:17;2.55;;;1.92;;
53285;SDS011;39171;45.550;12.074;2022-07-22T08:00:22;2.75;;;1.90;;
53285;SDS011;39171;45.550;12.074;2022-07-22T08:06:25;2.42;;;1.80;;
53285;SDS011;39171;45.550;12.074;2022-07-22T08:12:27;2.50;;;2.25;;
53285;SDS011;39171;45.550;12.074;2022-07-22T08:18:49;2.63;;;1.95;;
53285;SDS011;39171;45.550;12.074;2022-07-22T08:24:51;2.28;;;1.50;;
53285;SDS011;39171;45.550;12.074;2022-07-22T08:30:54;2.17;;;1.67;;
53285;SDS011;39171;45.550;12.074;2022-07-22T08:36:59;3.63;;;2.38;;
53285;SDS011;39171;45.550;12.074;2022-07-22T08:43:00;1.77;;;1.40;;
53285;SDS011;39171;45.550;12.074;2022-07-22T08:49:05;2.55;;;2.20;;
53285;SDS011;39171;45.550;12.074;2022-07-22T08:55:18;3.90;;;3.03;;
53285;SDS011;39171;45.550;12.074;2022-07-22T09:01:20;2.95;;;2.65;;
53285;SDS011;39171;45.550;12.074;2022-07-22T09:07:33;3.10;;;2.30;;
53285;SDS011;39171;45.550;12.074;2022-07-22T09:13:42;2.42;;;2.00;;
53285;SDS011;39171;45.550;12.074;2022-07-22T09:20:16;3.60;;;2.72;;
53285;SDS011;39171;45.550;12.074;2022-07-22T09:26:38;3.15;;;2.42;;
53285;SDS011;39171;45.550;12.074;2022-07-22T09:33:09;3.30;;;2.70;;
53285;SDS011;39171;45.550;12.074;2022-07-22T09:39:29;2.80;;;2.50;;
53285;SDS011;39171;45.550;12.074;2022-07-22T09:45:34;3.10;;;2.58;;
53285;SDS011;39171;45.550;12.074;2022-07-22T09:51:36;3.95;;;3.35;;
53285;SDS011;39171;45.550;12.074;2022-07-22T09:57:38;4.80;;;2.78;;
53285;SDS011;39171;45.550;12.074;2022-07-22T10:03:40;3.25;;;2.70;;
53285;SDS011;39171;45.550;12.074;2022-07-22T10:09:44;4.60;;;3.50;;
53285;SDS011;39171;45.550;12.074;2022-07-22T10:15:47;5.95;;;4.70;;
53285;SDS011;39171;45.550;12.074;2022-07-22T10:21:50;4.70;;;3.72;;
53285;SDS011;39171;45.550;12.074;2022-07-22T10:34:06;4.18;;;3.53;;
53285;SDS011;39171;45.550;12.074;2022-07-22T10:40:16;3.65;;;2.97;;
53285;SDS011;39171;45.550;12.074;2022-07-22T10:46:33;3.70;;;3.40;;
53285;SDS011;39171;45.550;12.074;2022-07-22T10:52:55;3.90;;;3.20;;
53285;SDS011;39171;45.550;12.074;2022-07-22T10:59:11;4.80;;;3.97;;
53285;SDS011;39171;45.550;12.074;2022-07-22T11:05:24;4.07;;;3.30;;
53285;SDS011;39171;45.550;12.074;2022-07-22T11:17:47;4.03;;;3.63;;
53285;SDS011;39171;45.550;12.074;2022-07-22T11:23:52;6.00;;;3.92;;
53285;SDS011;39171;45.550;12.074;2022-07-22T11:29:55;4.40;;;3.92;;
53285;SDS011;39171;45.550;12.074;2022-07-22T11:36:05;6.63;;;4.38;;
53285;SDS011;39171;45.550;12.074;2022-07-22T11:42:10;4.43;;;3.47;;
53285;SDS011;39171;45.550;12.074;2022-07-22T11:48:12;4.45;;;3.47;;
53285;SDS011;39171;45.550;12.074;2022-07-22T11:54:14;4.25;;;3.78;;
53285;SDS011;39171;45.550;12.074;2022-07-22T12:00:16;4.78;;;4.25;;
53285;SDS011;39171;45.550;12.074;2022-07-22T12:06:19;6.65;;;4.80;;
53285;SDS011;39171;45.550;12.074;2022-07-22T12:12:38;8.43;;;4.80;;
53285;SDS011;39171;45.550;12.074;2022-07-22T12:18:41;4.80;;;4.30;;
53285;SDS011;39171;45.550;12.074;2022-07-22T12:24:43;5.82;;;4.97;;
53285;SDS011;39171;45.550;12.074;2022-07-22T12:30:47;6.32;;;5.10;;
53285;SDS011;39171;45.550;12.074;2022-07-22T12:36:49;6.90;;;5.05;;
53285;SDS011;39171;45.550;12.074;2022-07-22T12:43:02;6.00;;;5.30;;
53285;SDS011;39171;45.550;12.074;2022-07-22T12:49:07;6.22;;;4.50;;
53285;SDS011;39171;45.550;12.074;2022-07-22T12:55:09;6.70;;;5.00;;
53285;SDS011;39171;45.550;12.074;2022-07-22T13:01:11;5.13;;;4.50;;
53285;SDS011;39171;45.550;12.074;2022-07-22T13:07:12;7.88;;;5.20;;
53285;SDS011;39171;45.550;12.074;2022-07-22T13:13:13;7.03;;;6.32;;
53285;SDS011;39171;45.550;12.074;2022-07-22T13:19:15;6.15;;;5.10;;
53285;SDS011;39171;45.550;12.074;2022-07-22T13:25:17;6.40;;;5.22;;
53285;SDS011;39171;45.550;12.074;2022-07-22T13:31:21;8.30;;;5.05;;
53285;SDS011;39171;45.550;12.074;2022-07-22T13:37:23;5.97;;;4.30;;
53285;SDS011;39171;45.550;12.074;2022-07-22T13:43:25;6.03;;;4.57;;
53285;SDS011;39171;45.550;12.074;2022-07-22T13:49:26;4.68;;;4.13;;
53285;SDS011;39171;45.550;12.074;2022-07-22T13:55:28;5.65;;;4.55;;
53285;SDS011;39171;45.550;12.074;2022-07-22T14:01:31;5.70;;;4.20;;
53285;SDS011;39171;45.550;12.074;2022-07-22T14:07:32;5.15;;;4.40;;
53285;SDS011;39171;45.550;12.074;2022-07-22T14:13:34;5.82;;;4.78;;
53285;SDS011;39171;45.550;12.074;2022-07-22T14:19:36;6.18;;;4.72;;
53285;SDS011;39171;45.550;12.074;2022-07-22T14:25:37;6.85;;;5.50;;
53285;SDS011;39171;45.550;12.074;2022-07-22T14:31:39;6.43;;;5.45;;
53285;SDS011;39171;45.550;12.074;2022-07-22T14:37:41;8.13;;;5.05;;
53285;SDS011;39171;45.550;12.074;2022-07-22T14:43:45;7.50;;;6.57;;
53285;SDS011;39171;45.550;12.074;2022-07-22T14:49:46;6.45;;;5.72;;
53285;SDS011;39171;45.550;12.074;2022-07-22T14:55:48;6.57;;;5.40;;
53285;SDS011;39171;45.550;12.074;2022-07-22T15:01:49;7.65;;;6.22;;
53285;SDS011;39171;45.550;12.074;2022-07-22T15:07:50;6.78;;;6.07;;
53285;SDS011;39171;45.550;12.074;2022-07-22T15:13:52;8.32;;;6.97;;
53285;SDS011;39171;45.550;12.074;2022-07-22T15:19:53;8.75;;;7.18;;
53285;SDS011;39171;45.550;12.074;2022-07-22T15:25:55;8.25;;;6.90;;
53285;SDS011;39171;45.550;12.074;2022-07-22T15:31:58;7.53;;;6.65;;
53285;SDS011;39171;45.550;12.074;2022-07-22T15:38:05;10.70;;;7.75;;
53285;SDS011;39171;45.550;12.074;2022-07-22T15:44:07;11.63;;;9.48;;
53285;SDS011;39171;45.550;12.074;2022-07-22T15:50:09;11.45;;;9.63;;
53285;SDS011;39171;45.550;12.074;2022-07-22T15:56:10;10.70;;;9.52;;
53285;SDS011;39171;45.550;12.074;2022-07-22T16:02:12;11.23;;;10.05;;
53285;SDS011;39171;45.550;12.074;2022-07-22T16:08:13;11.65;;;10.13;;
53285;SDS011;39171;45.550;12.074;2022-07-22T16:14:19;10.52;;;9.45;;
53285;SDS011;39171;45.550;12.074;2022-07-22T16:20:21;13.77;;;11.00;;
53285;SDS011;39171;45.550;12.074;2022-07-22T16:26:23;11.73;;;10.55;;
53285;SDS011;39171;45.550;12.074;2022-07-22T16:32:24;11.10;;;9.93;;
53285;SDS011;39171;45.550;12.074;2022-07-22T16:38:26;10.48;;;9.35;;
53285;SDS011;39171;45.550;12.074;2022-07-22T16:44:27;11.40;;;10.20;;
53285;SDS011;39171;45.550;12.074;2022-07-22T16:50:35;12.50;;;10.32;;
53285;SDS011;39171;45.550;12.074;2022-07-22T16:56:37;10.38;;;9.38;;
53285;SDS011;39171;45.550;12.074;2022-07-22T17:02:39;10.48;;;9.38;;
53285;SDS011;39171;45.550;12.074;2022-07-22T17:08:40;10.38;;;9.35;;
53285;SDS011;39171;45.550;12.074;2022-07-22T17:14:42;10.50;;;9.35;;
53285;SDS011;39171;45.550;12.074;2022-07-22T17:20:43;10.73;;;9.70;;
53285;SDS011;39171;45.550;12.074;2022-07-22T17:26:44;11.23;;;10.02;;
53285;SDS011;39171;45.550;12.074;2022-07-22T17:32:46;11.93;;;9.57;;
53285;SDS011;39171;45.550;12.074;2022-07-22T17:38:47;10.27;;;8.77;;
53285;SDS011;39171;45.550;12.074;2022-07-22T17:44:49;9.38;;;8.38;;
53285;SDS011;39171;45.550;12.074;2022-07-22T17:50:50;9.10;;;8.10;;
53285;SDS011;39171;45.550;12.074;2022-07-22T17:56:52;9.00;;;7.80;;
53285;SDS011;39171;45.550;12.074;2022-07-22T18:02:54;8.68;;;7.30;;
53285;SDS011;39171;45.550;12.074;2022-07-22T18:08:55;8.02;;;6.55;;
53285;SDS011;39171;45.550;12.074;2022-07-22T18:14:57;7.32;;;5.93;;
53285;SDS011;39171;45.550;12.074;2022-07-22T18:20:59;6.95;;;5.82;;
53285;SDS011;39171;45.550;12.074;2022-07-22T18:27:01;5.13;;;4.63;;
53285;SDS011;39171;45.550;12.074;2022-07-22T18:33:02;5.47;;;4.85;;
53285;SDS011;39171;45.550;12.074;2022-07-22T18:39:04;5.00;;;4.50;;
53285;SDS011;39171;45.550;12.074;2022-07-22T18:45:05;5.35;;;4.85;;
53285;SDS011;39171;45.550;12.074;2022-07-22T18:51:07;6.38;;;4.70;;
53285;SDS011;39171;45.550;12.074;2022-07-22T18:57:08;6.55;;;4.95;;
53285;SDS011;39171;45.550;12.074;2022-07-22T19:03:11;5.35;;;4.80;;
53285;SDS011;39171;45.550;12.074;2022-07-22T19:09:12;4.75;;;4.30;;
53285;SDS011;39171;45.550;12.074;2022-07-22T19:15:14;4.68;;;4.15;;
53285;SDS011;39171;45.550;12.074;2022-07-22T19:21:15;5.22;;;4.43;;
53285;SDS011;39171;45.550;12.074;2022-07-22T19:27:17;6.50;;;4.80;;
53285;SDS011;39171;45.550;12.074;2022-07-22T19:33:18;5.03;;;4.10;;
53285;SDS011;39171;45.550;12.074;2022-07-22T19:39:20;6.72;;;4.88;;
53285;SDS011;39171;45.550;12.074;2022-07-22T19:45:21;5.63;;;4.82;;
53285;SDS011;39171;45.550;12.074;2022-07-22T19:51:22;4.80;;;4.30;;
53285;SDS011;39171;45.550;12.074;2022-07-22T19:57:24;4.85;;;4.38;;
53285;SDS011;39171;45.550;12.074;2022-07-22T20:03:28;4.80;;;4.30;;
53285;SDS011;39171;45.550;12.074;2022-07-22T20:09:30;5.55;;;4.57;;
53285;SDS011;39171;45.550;12.074;2022-07-22T20:15:31;5.13;;;4.63;;
53285;SDS011;39171;45.550;12.074;2022-07-22T20:21:32;5.82;;;4.93;;
53285;SDS011;39171;45.550;12.074;2022-07-22T20:27:34;5.38;;;4.80;;
53285;SDS011;39171;45.550;12.074;2022-07-22T20:33:35;5.55;;;4.72;;
53285;SDS011;39171;45.550;12.074;2022-07-22T20:39:37;5.65;;;4.78;;
53285;SDS011;39171;45.550;12.074;2022-07-22T20:45:38;5.05;;;4.30;;
53285;SDS011;39171;45.550;12.074;2022-07-22T20:51:40;4.78;;;4.28;;
53285;SDS011;39171;45.550;12.074;2022-07-22T20:57:42;4.38;;;3.92;;
53285;SDS011;39171;45.550;12.074;2022-07-22T21:03:43;4.43;;;3.83;;
53285;SDS011;39171;45.550;12.074;2022-07-22T21:09:45;4.13;;;3.50;;
53285;SDS011;39171;45.550;12.074;2022-07-22T21:15:46;3.95;;;3.38;;
53285;SDS011;39171;45.550;12.074;2022-07-22T21:21:48;3.67;;;3.38;;
53285;SDS011;39171;45.550;12.074;2022-07-22T21:27:49;3.63;;;3.05;;
53285;SDS011;39171;45.550;12.074;2022-07-22T21:33:51;3.58;;;3.03;;
53285;SDS011;39171;45.550;12.074;2022-07-22T21:39:52;2.45;;;2.10;;
53285;SDS011;39171;45.550;12.074;2022-07-22T21:45:53;2.53;;;2.03;;
53285;SDS011;39171;45.550;12.074;2022-07-22T21:51:55;2.15;;;1.58;;
53285;SDS011;39171;45.550;12.074;2022-07-22T21:57:56;3.38;;;1.75;;
53285;SDS011;39171;45.550;12.074;2022-07-22T22:03:58;1.73;;;1.35;;
53285;SDS011;39171;45.550;12.074;2022-07-22T22:10:00;1.85;;;1.60;;
53285;SDS011;39171;45.550;12.074;2022-07-22T22:16:02;1.90;;;1.63;;
53285;SDS011;39171;45.550;12.074;2022-07-22T22:22:03;1.80;;;1.48;;
53285;SDS011;39171;45.550;12.074;2022-07-22T22:28:05;1.90;;;1.50;;
53285;SDS011;39171;45.550;12.074;2022-07-22T22:34:06;2.10;;;1.58;;
53285;SDS011;39171;45.550;12.074;2022-07-22T22:40:08;2.00;;;1.55;;
53285;SDS011;39171;45.550;12.074;2022-07-22T22:46:09;2.10;;;1.67;;
53285;SDS011;39171;45.550;12.074;2022-07-22T22:52:11;2.10;;;1.60;;
53285;SDS011;39171;45.550;12.074;2022-07-22T22:58:14;2.15;;;1.85;;
53285;SDS011;39171;45.550;12.074;2022-07-22T23:04:15;1.88;;;1.58;;
53285;SDS011;39171;45.550;12.074;2022-07-22T23:10:17;2.30;;;1.90;;
53285;SDS011;39171;45.550;12.074;2022-07-22T23:16:19;2.20;;;1.80;;
53285;SDS011;39171;45.550;12.074;2022-07-22T23:22:20;2.30;;;1.88;;
53285;SDS011;39171;45.550;12.074;2022-07-22T23:28:22;2.58;;;2.20;;
53285;SDS011;39171;45.550;12.074;2022-07-22T23:34:25;2.13;;;1.92;;
53285;SDS011;39171;45.550;12.074;2022-07-22T23:40:27;2.13;;;1.80;;
53285;SDS011;39171;45.550;12.074;2022-07-22T23:46:29;2.45;;;2.10;;
53285;SDS011;39171;45.550;12.074;2022-07-22T23:52:30;2.55;;;2.15;;
53285;SDS011;39171;45.550;12.074;2022-07-22T23:58:31;2.70;;;2.20;;
